ADDS METAR Data

Data at: 0527 UTC 20 Sep 2017

METAR for:KISP (Islip/Macarthur Arpt, NY, US)
Text:KISP 200456Z AUTO 02013KT 6SM -RA BR FEW015 OVC022 20/19 A2982 RMK AO2 SLP096 P0008 T02000194 402220200 $
Temperature: 20.0°C ( 68°F)
Dewpoint: 19.4°C ( 67°F) [RH = 96%]
Pressure (altimeter):29.82 inches Hg (1009.9 mb) [Sea level pressure: 1009.6 mb]
Winds:from the NNE (20 degrees) at 15 MPH (13 knots; 6.7 m/s)
Visibility: 6 sm ( 10 km)
Ceiling:2200 feet AGL
Clouds: few clouds at 1500 feet AGL, overcast cloud deck at 2200 feet AGL
Weather:-RA BR (light rain, mist)
QC Flag:automated observation with no human augmentation; SOME DATA ABOVE MAY BE INACCURATE!!!"$" is an indication the sensor requires maintenance.